sensor_id;sensor_type;location;lat;lon;timestamp;P1;durP1;ratioP1;P2;durP2;ratioP2
69404;SDS011;57084;52.046;5.632;2022-09-09T00:00:00;5.1;;;1.2;;
69404;SDS011;57084;52.046;5.632;2022-09-09T00:01:07;5.1;;;1.2;;
69404;SDS011;57084;52.046;5.632;2022-09-09T00:02:02;5.1;;;1.2;;
69404;SDS011;57084;52.046;5.632;2022-09-09T00:03:04;3.2;;;1.2;;
69404;SDS011;57084;52.046;5.632;2022-09-09T00:04:04;3.2;;;1.2;;
69404;SDS011;57084;52.046;5.632;2022-09-09T00:05:12;3.2;;;1.2;;
69404;SDS011;57084;52.046;5.632;2022-09-09T00:06:06;3.2;;;1.2;;
69404;SDS011;57084;52.046;5.632;2022-09-09T00:07:03;3.2;;;1.2;;
69404;SDS011;57084;52.046;5.632;2022-09-09T00:08:02;3.6;;;1.3;;
69404;SDS011;57084;52.046;5.632;2022-09-09T00:09:04;3.6;;;1.3;;
69404;SDS011;57084;52.046;5.632;2022-09-09T00:10:09;3.6;;;1.3;;
69404;SDS011;57084;52.046;5.632;2022-09-09T00:11:03;3.6;;;1.3;;
69404;SDS011;57084;52.046;5.632;2022-09-09T00:12:04;3.6;;;1.3;;
69404;SDS011;57084;52.046;5.632;2022-09-09T00:13:08;4.8;;;1.5;;
69404;SDS011;57084;52.046;5.632;2022-09-09T00:14:03;4.8;;;1.5;;
69404;SDS011;57084;52.046;5.632;2022-09-09T00:15:04;4.8;;;1.5;;
69404;SDS011;57084;52.046;5.632;2022-09-09T00:16:04;4.8;;;1.5;;
69404;SDS011;57084;52.046;5.632;2022-09-09T00:17:05;4.8;;;1.5;;
69404;SDS011;57084;52.046;5.632;2022-09-09T00:18:03;4.1;;;1.6;;
69404;SDS011;57084;52.046;5.632;2022-09-09T00:19:04;4.1;;;1.6;;
69404;SDS011;57084;52.046;5.632;2022-09-09T00:20:03;4.1;;;1.6;;
69404;SDS011;57084;52.046;5.632;2022-09-09T00:21:05;4.1;;;1.6;;
69404;SDS011;57084;52.046;5.632;2022-09-09T00:22:08;4.1;;;1.6;;
69404;SDS011;57084;52.046;5.632;2022-09-09T00:23:04;4.4;;;1.8;;
69404;SDS011;57084;52.046;5.632;2022-09-09T00:24:04;4.4;;;1.8;;
69404;SDS011;57084;52.046;5.632;2022-09-09T00:25:10;4.4;;;1.8;;
69404;SDS011;57084;52.046;5.632;2022-09-09T00:26:04;4.4;;;1.8;;
69404;SDS011;57084;52.046;5.632;2022-09-09T00:27:04;4.4;;;1.8;;
69404;SDS011;57084;52.046;5.632;2022-09-09T00:28:00;7.3;;;1.8;;
69404;SDS011;57084;52.046;5.632;2022-09-09T00:29:03;7.3;;;1.8;;
69404;SDS011;57084;52.046;5.632;2022-09-09T00:30:12;7.3;;;1.8;;
69404;SDS011;57084;52.046;5.632;2022-09-09T00:31:11;7.3;;;1.8;;
69404;SDS011;57084;52.046;5.632;2022-09-09T00:32:11;7.3;;;1.8;;
69404;SDS011;57084;52.046;5.632;2022-09-09T00:33:08;4.8;;;1.8;;
69404;SDS011;57084;52.046;5.632;2022-09-09T00:34:11;4.8;;;1.8;;
69404;SDS011;57084;52.046;5.632;2022-09-09T00:35:03;4.8;;;1.8;;
69404;SDS011;57084;52.046;5.632;2022-09-09T00:36:00;4.8;;;1.8;;
69404;SDS011;57084;52.046;5.632;2022-09-09T00:37:02;4.8;;;1.8;;
69404;SDS011;57084;52.046;5.632;2022-09-09T00:38:03;5.8;;;1.9;;
69404;SDS011;57084;52.046;5.632;2022-09-09T00:39:01;5.8;;;1.9;;
69404;SDS011;57084;52.046;5.632;2022-09-09T00:40:02;5.8;;;1.9;;
69404;SDS011;57084;52.046;5.632;2022-09-09T00:41:05;5.8;;;1.9;;
69404;SDS011;57084;52.046;5.632;2022-09-09T00:42:13;5.8;;;1.9;;
69404;SDS011;57084;52.046;5.632;2022-09-09T00:43:15;6.0;;;2.3;;
69404;SDS011;57084;52.046;5.632;2022-09-09T00:44:02;6.0;;;2.3;;
69404;SDS011;57084;52.046;5.632;2022-09-09T00:45:05;6.0;;;2.3;;
69404;SDS011;57084;52.046;5.632;2022-09-09T00:47:12;6.0;;;2.3;;
69404;SDS011;57084;52.046;5.632;2022-09-09T00:48:04;6.2;;;2.2;;
69404;SDS011;57084;52.046;5.632;2022-09-09T00:49:04;6.2;;;2.2;;
69404;SDS011;57084;52.046;5.632;2022-09-09T00:50:03;6.2;;;2.2;;
69404;SDS011;57084;52.046;5.632;2022-09-09T00:51:03;6.2;;;2.2;;
69404;SDS011;57084;52.046;5.632;2022-09-09T00:52:11;6.2;;;2.2;;
69404;SDS011;57084;52.046;5.632;2022-09-09T00:53:09;5.2;;;2.1;;
69404;SDS011;57084;52.046;5.632;2022-09-09T00:54:13;5.2;;;2.1;;
69404;SDS011;57084;52.046;5.632;2022-09-09T00:55:07;5.2;;;2.1;;
69404;SDS011;57084;52.046;5.632;2022-09-09T00:56:09;5.2;;;2.1;;
69404;SDS011;57084;52.046;5.632;2022-09-09T00:57:10;5.2;;;2.1;;
69404;SDS011;57084;52.046;5.632;2022-09-09T00:58:00;6.1;;;2.2;;
69404;SDS011;57084;52.046;5.632;2022-09-09T00:59:10;6.1;;;2.2;;
69404;SDS011;57084;52.046;5.632;2022-09-09T01:00:19;6.1;;;2.2;;
69404;SDS011;57084;52.046;5.632;2022-09-09T01:01:04;6.1;;;2.2;;
69404;SDS011;57084;52.046;5.632;2022-09-09T01:02:00;6.1;;;2.2;;
69404;SDS011;57084;52.046;5.632;2022-09-09T01:03:12;6.9;;;2.4;;
69404;SDS011;57084;52.046;5.632;2022-09-09T01:04:00;6.9;;;2.4;;
69404;SDS011;57084;52.046;5.632;2022-09-09T01:05:05;6.9;;;2.4;;
69404;SDS011;57084;52.046;5.632;2022-09-09T01:06:02;6.9;;;2.4;;
69404;SDS011;57084;52.046;5.632;2022-09-09T01:07:05;6.9;;;2.4;;
69404;SDS011;57084;52.046;5.632;2022-09-09T01:08:01;5.1;;;2.0;;
69404;SDS011;57084;52.046;5.632;2022-09-09T01:09:08;5.1;;;2.0;;
69404;SDS011;57084;52.046;5.632;2022-09-09T01:10:03;5.1;;;2.0;;
69404;SDS011;57084;52.046;5.632;2022-09-09T01:11:00;5.1;;;2.0;;
69404;SDS011;57084;52.046;5.632;2022-09-09T01:12:02;5.1;;;2.0;;
69404;SDS011;57084;52.046;5.632;2022-09-09T01:13:02;5.9;;;2.3;;
69404;SDS011;57084;52.046;5.632;2022-09-09T01:14:10;5.9;;;2.3;;
69404;SDS011;57084;52.046;5.632;2022-09-09T01:15:07;5.9;;;2.3;;
69404;SDS011;57084;52.046;5.632;2022-09-09T01:16:02;5.9;;;2.3;;
69404;SDS011;57084;52.046;5.632;2022-09-09T01:17:03;5.9;;;2.3;;
69404;SDS011;57084;52.046;5.632;2022-09-09T01:18:04;5.2;;;2.1;;
69404;SDS011;57084;52.046;5.632;2022-09-09T01:19:01;5.2;;;2.1;;
69404;SDS011;57084;52.046;5.632;2022-09-09T01:20:08;5.2;;;2.1;;
69404;SDS011;57084;52.046;5.632;2022-09-09T01:21:05;5.2;;;2.1;;
69404;SDS011;57084;52.046;5.632;2022-09-09T01:22:07;5.2;;;2.1;;
69404;SDS011;57084;52.046;5.632;2022-09-09T01:23:14;6.1;;;2.0;;
69404;SDS011;57084;52.046;5.632;2022-09-09T01:24:13;6.1;;;2.0;;
69404;SDS011;57084;52.046;5.632;2022-09-09T01:26:12;6.1;;;2.0;;
69404;SDS011;57084;52.046;5.632;2022-09-09T01:27:01;6.1;;;2.0;;
69404;SDS011;57084;52.046;5.632;2022-09-09T01:28:03;5.6;;;1.9;;
69404;SDS011;57084;52.046;5.632;2022-09-09T01:29:00;5.6;;;1.9;;
69404;SDS011;57084;52.046;5.632;2022-09-09T01:30:00;5.6;;;1.9;;
69404;SDS011;57084;52.046;5.632;2022-09-09T01:31:00;5.6;;;1.9;;
69404;SDS011;57084;52.046;5.632;2022-09-09T01:32:01;5.6;;;1.9;;
69404;SDS011;57084;52.046;5.632;2022-09-09T01:33:00;6.6;;;2.0;;
69404;SDS011;57084;52.046;5.632;2022-09-09T01:34:01;6.6;;;2.0;;
69404;SDS011;57084;52.046;5.632;2022-09-09T01:35:01;6.6;;;2.0;;
69404;SDS011;57084;52.046;5.632;2022-09-09T01:36:04;6.6;;;2.0;;
69404;SDS011;57084;52.046;5.632;2022-09-09T01:37:02;6.6;;;2.0;;
69404;SDS011;57084;52.046;5.632;2022-09-09T01:38:00;5.3;;;2.0;;
69404;SDS011;57084;52.046;5.632;2022-09-09T01:39:00;5.3;;;2.0;;
69404;SDS011;57084;52.046;5.632;2022-09-09T01:40:00;5.3;;;2.0;;
69404;SDS011;57084;52.046;5.632;2022-09-09T01:41:00;5.3;;;2.0;;
69404;SDS011;57084;52.046;5.632;2022-09-09T01:42:01;5.3;;;2.0;;
69404;SDS011;57084;52.046;5.632;2022-09-09T01:43:00;6.0;;;1.7;;
69404;SDS011;57084;52.046;5.632;2022-09-09T01:44:00;6.0;;;1.7;;
69404;SDS011;57084;52.046;5.632;2022-09-09T01:45:00;6.0;;;1.7;;
69404;SDS011;57084;52.046;5.632;2022-09-09T01:46:01;6.0;;;1.7;;
69404;SDS011;57084;52.046;5.632;2022-09-09T01:47:00;6.0;;;1.7;;
69404;SDS011;57084;52.046;5.632;2022-09-09T01:48:00;7.5;;;1.9;;
69404;SDS011;57084;52.046;5.632;2022-09-09T01:49:02;7.5;;;1.9;;
69404;SDS011;57084;52.046;5.632;2022-09-09T01:50:01;7.5;;;1.9;;
69404;SDS011;57084;52.046;5.632;2022-09-09T01:51:00;7.5;;;1.9;;
69404;SDS011;57084;52.046;5.632;2022-09-09T01:52:00;7.5;;;1.9;;
69404;SDS011;57084;52.046;5.632;2022-09-09T01:53:01;6.1;;;2.1;;
69404;SDS011;57084;52.046;5.632;2022-09-09T01:54:00;6.1;;;2.1;;
69404;SDS011;57084;52.046;5.632;2022-09-09T01:55:00;6.1;;;2.1;;
69404;SDS011;57084;52.046;5.632;2022-09-09T01:56:07;6.1;;;2.1;;
69404;SDS011;57084;52.046;5.632;2022-09-09T01:57:07;6.1;;;2.1;;
69404;SDS011;57084;52.046;5.632;2022-09-09T01:58:13;4.2;;;1.7;;
69404;SDS011;57084;52.046;5.632;2022-09-09T01:59:07;4.2;;;1.7;;
69404;SDS011;57084;52.046;5.632;2022-09-09T02:00:03;4.2;;;1.7;;
69404;SDS011;57084;52.046;5.632;2022-09-09T02:01:06;4.2;;;1.7;;
69404;SDS011;57084;52.046;5.632;2022-09-09T02:02:08;4.2;;;1.7;;
69404;SDS011;57084;52.046;5.632;2022-09-09T02:03:05;5.0;;;1.7;;
69404;SDS011;57084;52.046;5.632;2022-09-09T02:04:03;5.0;;;1.7;;
69404;SDS011;57084;52.046;5.632;2022-09-09T02:05:06;5.0;;;1.7;;
69404;SDS011;57084;52.046;5.632;2022-09-09T02:06:05;5.0;;;1.7;;
69404;SDS011;57084;52.046;5.632;2022-09-09T02:07:00;5.0;;;1.7;;
69404;SDS011;57084;52.046;5.632;2022-09-09T02:08:05;6.5;;;2.0;;
69404;SDS011;57084;52.046;5.632;2022-09-09T02:09:03;6.5;;;2.0;;
69404;SDS011;57084;52.046;5.632;2022-09-09T02:10:04;6.5;;;2.0;;
69404;SDS011;57084;52.046;5.632;2022-09-09T02:11:03;6.5;;;2.0;;
69404;SDS011;57084;52.046;5.632;2022-09-09T02:12:04;6.5;;;2.0;;
69404;SDS011;57084;52.046;5.632;2022-09-09T02:13:03;6.5;;;2.0;;
69404;SDS011;57084;52.046;5.632;2022-09-09T02:14:02;5.0;;;1.9;;
69404;SDS011;57084;52.046;5.632;2022-09-09T02:15:05;5.0;;;1.9;;
69404;SDS011;57084;52.046;5.632;2022-09-09T02:16:03;5.0;;;1.9;;
69404;SDS011;57084;52.046;5.632;2022-09-09T02:17:03;5.0;;;1.9;;
69404;SDS011;57084;52.046;5.632;2022-09-09T02:18:04;5.0;;;1.9;;
69404;SDS011;57084;52.046;5.632;2022-09-09T02:19:02;7.3;;;1.9;;
69404;SDS011;57084;52.046;5.632;2022-09-09T02:20:04;7.3;;;1.9;;
69404;SDS011;57084;52.046;5.632;2022-09-09T02:21:02;7.3;;;1.9;;
69404;SDS011;57084;52.046;5.632;2022-09-09T02:22:00;7.3;;;1.9;;
69404;SDS011;57084;52.046;5.632;2022-09-09T02:23:00;7.3;;;1.9;;
69404;SDS011;57084;52.046;5.632;2022-09-09T02:24:03;5.1;;;2.0;;
69404;SDS011;57084;52.046;5.632;2022-09-09T02:25:00;5.1;;;2.0;;
69404;SDS011;57084;52.046;5.632;2022-09-09T02:26:00;5.1;;;2.0;;
69404;SDS011;57084;52.046;5.632;2022-09-09T02:27:03;5.1;;;2.0;;
69404;SDS011;57084;52.046;5.632;2022-09-09T02:28:01;5.1;;;2.0;;
69404;SDS011;57084;52.046;5.632;2022-09-09T02:29:03;6.6;;;2.0;;
69404;SDS011;57084;52.046;5.632;2022-09-09T02:30:02;6.6;;;2.0;;
69404;SDS011;57084;52.046;5.632;2022-09-09T02:31:00;6.6;;;2.0;;
69404;SDS011;57084;52.046;5.632;2022-09-09T02:32:03;6.6;;;2.0;;
69404;SDS011;57084;52.046;5.632;2022-09-09T02:33:03;6.6;;;2.0;;
69404;SDS011;57084;52.046;5.632;2022-09-09T02:34:01;4.4;;;1.7;;
69404;SDS011;57084;52.046;5.632;2022-09-09T02:35:03;4.4;;;1.7;;
69404;SDS011;57084;52.046;5.632;2022-09-09T02:36:01;4.4;;;1.7;;
69404;SDS011;57084;52.046;5.632;2022-09-09T02:37:01;4.4;;;1.7;;
69404;SDS011;57084;52.046;5.632;2022-09-09T02:38:04;4.4;;;1.7;;
69404;SDS011;57084;52.046;5.632;2022-09-09T02:39:01;7.0;;;2.0;;
69404;SDS011;57084;52.046;5.632;2022-09-09T02:40:00;7.0;;;2.0;;
69404;SDS011;57084;52.046;5.632;2022-09-09T02:41:00;7.0;;;2.0;;
69404;SDS011;57084;52.046;5.632;2022-09-09T02:42:00;7.0;;;2.0;;
69404;SDS011;57084;52.046;5.632;2022-09-09T02:43:00;7.0;;;2.0;;
69404;SDS011;57084;52.046;5.632;2022-09-09T02:44:01;9.3;;;2.4;;
69404;SDS011;57084;52.046;5.632;2022-09-09T02:45:00;9.3;;;2.4;;
69404;SDS011;57084;52.046;5.632;2022-09-09T02:46:04;9.3;;;2.4;;
69404;SDS011;57084;52.046;5.632;2022-09-09T02:47:10;9.3;;;2.4;;
69404;SDS011;57084;52.046;5.632;2022-09-09T02:48:06;9.3;;;2.4;;
69404;SDS011;57084;52.046;5.632;2022-09-09T02:49:03;5.9;;;2.0;;
69404;SDS011;57084;52.046;5.632;2022-09-09T02:50:05;5.9;;;2.0;;
69404;SDS011;57084;52.046;5.632;2022-09-09T02:51:05;5.9;;;2.0;;
69404;SDS011;57084;52.046;5.632;2022-09-09T02:52:02;5.9;;;2.0;;
69404;SDS011;57084;52.046;5.632;2022-09-09T02:53:07;5.9;;;2.0;;
69404;SDS011;57084;52.046;5.632;2022-09-09T02:54:05;5.6;;;2.1;;
69404;SDS011;57084;52.046;5.632;2022-09-09T02:55:05;5.6;;;2.1;;
69404;SDS011;57084;52.046;5.632;2022-09-09T02:56:04;5.6;;;2.1;;
69404;SDS011;57084;52.046;5.632;2022-09-09T02:57:04;5.6;;;2.1;;
69404;SDS011;57084;52.046;5.632;2022-09-09T02:58:01;5.6;;;2.1;;
69404;SDS011;57084;52.046;5.632;2022-09-09T02:59:03;5.1;;;1.9;;
69404;SDS011;57084;52.046;5.632;2022-09-09T03:00:00;5.1;;;1.9;;
69404;SDS011;57084;52.046;5.632;2022-09-09T03:01:00;5.1;;;1.9;;
69404;SDS011;57084;52.046;5.632;2022-09-09T03:02:00;5.1;;;1.9;;
69404;SDS011;57084;52.046;5.632;2022-09-09T03:03:00;5.1;;;1.9;;
69404;SDS011;57084;52.046;5.632;2022-09-09T03:04:00;9.1;;;2.5;;
69404;SDS011;57084;52.046;5.632;2022-09-09T03:05:00;9.1;;;2.5;;
69404;SDS011;57084;52.046;5.632;2022-09-09T03:06:00;9.1;;;2.5;;
69404;SDS011;57084;52.046;5.632;2022-09-09T03:07:00;9.1;;;2.5;;
69404;SDS011;57084;52.046;5.632;2022-09-09T03:08:00;9.1;;;2.5;;
69404;SDS011;57084;52.046;5.632;2022-09-09T03:09:00;5.0;;;2.2;;
69404;SDS011;57084;52.046;5.632;2022-09-09T03:10:00;5.0;;;2.2;;
69404;SDS011;57084;52.046;5.632;2022-09-09T03:11:00;5.0;;;2.2;;
69404;SDS011;57084;52.046;5.632;2022-09-09T03:12:00;5.0;;;2.2;;
69404;SDS011;57084;52.046;5.632;2022-09-09T03:13:00;5.0;;;2.2;;
69404;SDS011;57084;52.046;5.632;2022-09-09T03:14:00;6.2;;;2.2;;
69404;SDS011;57084;52.046;5.632;2022-09-09T03:15:00;6.2;;;2.2;;
69404;SDS011;57084;52.046;5.632;2022-09-09T03:16:00;6.2;;;2.2;;
69404;SDS011;57084;52.046;5.632;2022-09-09T03:17:00;6.2;;;2.2;;
69404;SDS011;57084;52.046;5.632;2022-09-09T03:18:00;6.2;;;2.2;;
69404;SDS011;57084;52.046;5.632;2022-09-09T03:19:00;5.4;;;1.9;;
69404;SDS011;57084;52.046;5.632;2022-09-09T03:20:00;5.4;;;1.9;;
69404;SDS011;57084;52.046;5.632;2022-09-09T03:21:00;5.4;;;1.9;;
69404;SDS011;57084;52.046;5.632;2022-09-09T03:22:00;5.4;;;1.9;;
69404;SDS011;57084;52.046;5.632;2022-09-09T03:23:00;5.4;;;1.9;;
69404;SDS011;57084;52.046;5.632;2022-09-09T03:24:00;6.9;;;2.3;;
69404;SDS011;57084;52.046;5.632;2022-09-09T03:25:00;6.9;;;2.3;;
69404;SDS011;57084;52.046;5.632;2022-09-09T03:26:00;6.9;;;2.3;;
69404;SDS011;57084;52.046;5.632;2022-09-09T03:27:00;6.9;;;2.3;;
69404;SDS011;57084;52.046;5.632;2022-09-09T03:28:00;6.9;;;2.3;;
69404;SDS011;57084;52.046;5.632;2022-09-09T03:29:00;5.8;;;2.1;;
69404;SDS011;57084;52.046;5.632;2022-09-09T03:30:00;5.8;;;2.1;;
69404;SDS011;57084;52.046;5.632;2022-09-09T03:31:00;5.8;;;2.1;;
69404;SDS011;57084;52.046;5.632;2022-09-09T03:32:00;5.8;;;2.1;;
69404;SDS011;57084;52.046;5.632;2022-09-09T03:33:00;5.8;;;2.1;;
69404;SDS011;57084;52.046;5.632;2022-09-09T03:34:00;5.9;;;2.3;;
69404;SDS011;57084;52.046;5.632;2022-09-09T03:35:00;5.9;;;2.3;;
69404;SDS011;57084;52.046;5.632;2022-09-09T03:36:00;5.9;;;2.3;;
69404;SDS011;57084;52.046;5.632;2022-09-09T03:37:00;5.9;;;2.3;;
69404;SDS011;57084;52.046;5.632;2022-09-09T03:38:00;5.9;;;2.3;;
69404;SDS011;57084;52.046;5.632;2022-09-09T03:39:00;5.3;;;2.3;;
69404;SDS011;57084;52.046;5.632;2022-09-09T03:40:00;5.3;;;2.3;;
69404;SDS011;57084;52.046;5.632;2022-09-09T03:41:00;5.3;;;2.3;;
69404;SDS011;57084;52.046;5.632;2022-09-09T03:42:00;5.3;;;2.3;;
69404;SDS011;57084;52.046;5.632;2022-09-09T03:43:00;5.3;;;2.3;;
69404;SDS011;57084;52.046;5.632;2022-09-09T03:44:00;6.1;;;2.5;;
69404;SDS011;57084;52.046;5.632;2022-09-09T03:45:00;6.1;;;2.5;;
69404;SDS011;57084;52.046;5.632;2022-09-09T03:46:00;6.1;;;2.5;;
69404;SDS011;57084;52.046;5.632;2022-09-09T03:47:00;6.1;;;2.5;;
69404;SDS011;57084;52.046;5.632;2022-09-09T03:48:00;6.1;;;2.5;;
69404;SDS011;57084;52.046;5.632;2022-09-09T03:49:00;5.7;;;2.3;;
69404;SDS011;57084;52.046;5.632;2022-09-09T03:50:00;5.7;;;2.3;;
69404;SDS011;57084;52.046;5.632;2022-09-09T03:51:00;5.7;;;2.3;;
69404;SDS011;57084;52.046;5.632;2022-09-09T03:52:00;5.7;;;2.3;;
69404;SDS011;57084;52.046;5.632;2022-09-09T03:53:00;5.7;;;2.3;;
69404;SDS011;57084;52.046;5.632;2022-09-09T03:54:00;6.2;;;2.4;;
69404;SDS011;57084;52.046;5.632;2022-09-09T03:55:00;6.2;;;2.4;;
69404;SDS011;57084;52.046;5.632;2022-09-09T03:56:00;6.2;;;2.4;;
69404;SDS011;57084;52.046;5.632;2022-09-09T03:57:00;6.2;;;2.4;;
69404;SDS011;57084;52.046;5.632;2022-09-09T03:58:00;6.2;;;2.4;;
69404;SDS011;57084;52.046;5.632;2022-09-09T03:59:00;6.5;;;2.4;;
69404;SDS011;57084;52.046;5.632;2022-09-09T04:00:00;6.5;;;2.4;;
69404;SDS011;57084;52.046;5.632;2022-09-09T04:01:01;6.5;;;2.4;;
69404;SDS011;57084;52.046;5.632;2022-09-09T04:02:00;6.5;;;2.4;;
69404;SDS011;57084;52.046;5.632;2022-09-09T04:03:00;6.5;;;2.4;;
69404;SDS011;57084;52.046;5.632;2022-09-09T04:04:00;7.2;;;2.3;;
69404;SDS011;57084;52.046;5.632;2022-09-09T04:05:00;7.2;;;2.3;;
69404;SDS011;57084;52.046;5.632;2022-09-09T04:06:01;7.2;;;2.3;;
69404;SDS011;57084;52.046;5.632;2022-09-09T04:07:00;7.2;;;2.3;;
69404;SDS011;57084;52.046;5.632;2022-09-09T04:08:00;7.2;;;2.3;;
69404;SDS011;57084;52.046;5.632;2022-09-09T04:09:00;5.7;;;2.3;;
69404;SDS011;57084;52.046;5.632;2022-09-09T04:10:00;5.7;;;2.3;;
69404;SDS011;57084;52.046;5.632;2022-09-09T04:11:01;5.7;;;2.3;;
69404;SDS011;57084;52.046;5.632;2022-09-09T04:12:00;5.7;;;2.3;;
69404;SDS011;57084;52.046;5.632;2022-09-09T04:13:00;5.7;;;2.3;;
69404;SDS011;57084;52.046;5.632;2022-09-09T04:14:00;5.7;;;2.3;;
69404;SDS011;57084;52.046;5.632;2022-09-09T04:15:00;5.7;;;2.2;;
69404;SDS011;57084;52.046;5.632;2022-09-09T04:16:01;5.7;;;2.2;;
69404;SDS011;57084;52.046;5.632;2022-09-09T04:17:00;5.7;;;2.2;;
69404;SDS011;57084;52.046;5.632;2022-09-09T04:18:00;5.7;;;2.2;;
69404;SDS011;57084;52.046;5.632;2022-09-09T04:19:00;5.7;;;2.2;;
69404;SDS011;57084;52.046;5.632;2022-09-09T04:20:00;4.9;;;2.0;;
69404;SDS011;57084;52.046;5.632;2022-09-09T04:21:00;4.9;;;2.0;;
69404;SDS011;57084;52.046;5.632;2022-09-09T04:22:00;4.9;;;2.0;;
69404;SDS011;57084;52.046;5.632;2022-09-09T04:23:00;4.9;;;2.0;;
69404;SDS011;57084;52.046;5.632;2022-09-09T04:24:00;4.9;;;2.0;;
69404;SDS011;57084;52.046;5.632;2022-09-09T04:25:00;6.0;;;2.1;;
69404;SDS011;57084;52.046;5.632;2022-09-09T04:26:01;6.0;;;2.1;;
69404;SDS011;57084;52.046;5.632;2022-09-09T04:27:00;6.0;;;2.1;;
69404;SDS011;57084;52.046;5.632;2022-09-09T04:28:00;6.0;;;2.1;;
69404;SDS011;57084;52.046;5.632;2022-09-09T04:29:00;6.0;;;2.1;;
69404;SDS011;57084;52.046;5.632;2022-09-09T04:30:00;6.1;;;2.2;;
69404;SDS011;57084;52.046;5.632;2022-09-09T04:31:04;6.1;;;2.2;;
69404;SDS011;57084;52.046;5.632;2022-09-09T04:32:00;6.1;;;2.2;;
69404;SDS011;57084;52.046;5.632;2022-09-09T04:33:00;6.1;;;2.2;;
69404;SDS011;57084;52.046;5.632;2022-09-09T04:34:00;6.1;;;2.2;;
69404;SDS011;57084;52.046;5.632;2022-09-09T04:35:00;5.5;;;2.2;;
69404;SDS011;57084;52.046;5.632;2022-09-09T04:36:00;5.5;;;2.2;;
69404;SDS011;57084;52.046;5.632;2022-09-09T04:37:00;5.5;;;2.2;;
69404;SDS011;57084;52.046;5.632;2022-09-09T04:38:00;5.5;;;2.2;;
69404;SDS011;57084;52.046;5.632;2022-09-09T04:39:00;5.5;;;2.2;;
69404;SDS011;57084;52.046;5.632;2022-09-09T04:40:00;5.1;;;2.0;;
69404;SDS011;57084;52.046;5.632;2022-09-09T04:41:00;5.1;;;2.0;;
69404;SDS011;57084;52.046;5.632;2022-09-09T04:42:00;5.1;;;2.0;;
69404;SDS011;57084;52.046;5.632;2022-09-09T04:43:00;5.1;;;2.0;;
69404;SDS011;57084;52.046;5.632;2022-09-09T04:44:00;5.1;;;2.0;;
69404;SDS011;57084;52.046;5.632;2022-09-09T04:45:00;6.1;;;2.3;;
69404;SDS011;57084;52.046;5.632;2022-09-09T04:46:00;6.1;;;2.3;;
69404;SDS011;57084;52.046;5.632;2022-09-09T04:47:00;6.1;;;2.3;;
69404;SDS011;57084;52.046;5.632;2022-09-09T04:48:00;6.1;;;2.3;;
69404;SDS011;57084;52.046;5.632;2022-09-09T04:49:00;6.1;;;2.3;;
69404;SDS011;57084;52.046;5.632;2022-09-09T04:50:00;6.6;;;2.3;;
69404;SDS011;57084;52.046;5.632;2022-09-09T04:51:02;6.6;;;2.3;;
69404;SDS011;57084;52.046;5.632;2022-09-09T04:52:00;6.6;;;2.3;;
69404;SDS011;57084;52.046;5.632;2022-09-09T04:53:00;6.6;;;2.3;;
69404;SDS011;57084;52.046;5.632;2022-09-09T04:54:00;6.6;;;2.3;;
69404;SDS011;57084;52.046;5.632;2022-09-09T04:55:00;6.8;;;2.3;;
69404;SDS011;57084;52.046;5.632;2022-09-09T04:56:02;6.8;;;2.3;;
69404;SDS011;57084;52.046;5.632;2022-09-09T04:57:00;6.8;;;2.3;;
69404;SDS011;57084;52.046;5.632;2022-09-09T04:58:03;6.8;;;2.3;;
69404;SDS011;57084;52.046;5.632;2022-09-09T04:59:00;6.8;;;2.3;;
69404;SDS011;57084;52.046;5.632;2022-09-09T05:00:00;6.6;;;2.1;;
69404;SDS011;57084;52.046;5.632;2022-09-09T05:01:04;6.6;;;2.1;;
69404;SDS011;57084;52.046;5.632;2022-09-09T05:02:00;6.6;;;2.1;;
69404;SDS011;57084;52.046;5.632;2022-09-09T05:03:02;6.6;;;2.1;;
69404;SDS011;57084;52.046;5.632;2022-09-09T05:04:00;6.6;;;2.1;;
69404;SDS011;57084;52.046;5.632;2022-09-09T05:05:00;6.4;;;1.9;;
69404;SDS011;57084;52.046;5.632;2022-09-09T05:06:04;6.4;;;1.9;;
69404;SDS011;57084;52.046;5.632;2022-09-09T05:07:00;6.4;;;1.9;;
69404;SDS011;57084;52.046;5.632;2022-09-09T05:08:01;6.4;;;1.9;;
69404;SDS011;57084;52.046;5.632;2022-09-09T05:09:00;6.4;;;1.9;;
69404;SDS011;57084;52.046;5.632;2022-09-09T05:10:00;7.2;;;1.9;;
69404;SDS011;57084;52.046;5.632;2022-09-09T05:11:00;7.2;;;1.9;;
69404;SDS011;57084;52.046;5.632;2022-09-09T05:12:00;7.2;;;1.9;;
69404;SDS011;57084;52.046;5.632;2022-09-09T05:13:00;7.2;;;1.9;;
69404;SDS011;57084;52.046;5.632;2022-09-09T05:14:00;7.2;;;1.9;;
69404;SDS011;57084;52.046;5.632;2022-09-09T05:15:00;5.8;;;2.0;;
69404;SDS011;57084;52.046;5.632;2022-09-09T05:16:00;5.8;;;2.0;;
69404;SDS011;57084;52.046;5.632;2022-09-09T05:17:00;5.8;;;2.0;;
69404;SDS011;57084;52.046;5.632;2022-09-09T05:18:00;5.8;;;2.0;;
69404;SDS011;57084;52.046;5.632;2022-09-09T05:19:00;5.8;;;2.0;;
69404;SDS011;57084;52.046;5.632;2022-09-09T05:20:00;5.9;;;2.0;;
69404;SDS011;57084;52.046;5.632;2022-09-09T05:21:00;5.9;;;2.0;;
69404;SDS011;57084;52.046;5.632;2022-09-09T05:22:00;5.9;;;2.0;;
69404;SDS011;57084;52.046;5.632;2022-09-09T05:23:00;5.9;;;2.0;;
69404;SDS011;57084;52.046;5.632;2022-09-09T05:24:00;5.9;;;2.0;;
69404;SDS011;57084;52.046;5.632;2022-09-09T05:25:00;7.0;;;2.1;;
69404;SDS011;57084;52.046;5.632;2022-09-09T05:26:02;7.0;;;2.1;;
69404;SDS011;57084;52.046;5.632;2022-09-09T05:27:00;7.0;;;2.1;;
69404;SDS011;57084;52.046;5.632;2022-09-09T05:28:00;7.0;;;2.1;;
69404;SDS011;57084;52.046;5.632;2022-09-09T05:29:00;7.0;;;2.1;;
69404;SDS011;57084;52.046;5.632;2022-09-09T05:30:00;5.7;;;1.9;;
69404;SDS011;57084;52.046;5.632;2022-09-09T05:31:01;5.7;;;1.9;;
69404;SDS011;57084;52.046;5.632;2022-09-09T05:32:00;5.7;;;1.9;;
69404;SDS011;57084;52.046;5.632;2022-09-09T05:33:00;5.7;;;1.9;;
69404;SDS011;57084;52.046;5.632;2022-09-09T05:34:00;5.7;;;1.9;;
69404;SDS011;57084;52.046;5.632;2022-09-09T05:35:00;7.8;;;2.2;;
69404;SDS011;57084;52.046;5.632;2022-09-09T05:36:02;7.8;;;2.2;;
69404;SDS011;57084;52.046;5.632;2022-09-09T05:37:00;7.8;;;2.2;;
69404;SDS011;57084;52.046;5.632;2022-09-09T05:38:00;7.8;;;2.2;;
69404;SDS011;57084;52.046;5.632;2022-09-09T05:39:00;7.8;;;2.2;;
69404;SDS011;57084;52.046;5.632;2022-09-09T05:40:00;6.6;;;2.0;;
69404;SDS011;57084;52.046;5.632;2022-09-09T05:41:01;6.6;;;2.0;;
69404;SDS011;57084;52.046;5.632;2022-09-09T05:42:00;6.6;;;2.0;;
69404;SDS011;57084;52.046;5.632;2022-09-09T05:43:00;6.6;;;2.0;;
69404;SDS011;57084;52.046;5.632;2022-09-09T05:44:00;6.6;;;2.0;;
69404;SDS011;57084;52.046;5.632;2022-09-09T05:45:00;5.3;;;1.8;;
69404;SDS011;57084;52.046;5.632;2022-09-09T05:46:01;5.3;;;1.8;;
69404;SDS011;57084;52.046;5.632;2022-09-09T05:47:00;5.3;;;1.8;;
69404;SDS011;57084;52.046;5.632;2022-09-09T05:48:00;5.3;;;1.8;;
69404;SDS011;57084;52.046;5.632;2022-09-09T05:49:01;5.3;;;1.8;;
69404;SDS011;57084;52.046;5.632;2022-09-09T05:50:00;5.7;;;1.8;;
69404;SDS011;57084;52.046;5.632;2022-09-09T05:51:00;5.7;;;1.8;;
69404;SDS011;57084;52.046;5.632;2022-09-09T05:52:00;5.7;;;1.8;;
69404;SDS011;57084;52.046;5.632;2022-09-09T05:53:00;5.7;;;1.8;;
69404;SDS011;57084;52.046;5.632;2022-09-09T05:54:00;5.7;;;1.8;;
69404;SDS011;57084;52.046;5.632;2022-09-09T05:55:00;7.2;;;2.0;;
69404;SDS011;57084;52.046;5.632;2022-09-09T05:56:01;7.2;;;2.0;;
69404;SDS011;57084;52.046;5.632;2022-09-09T05:57:00;7.2;;;2.0;;
69404;SDS011;57084;52.046;5.632;2022-09-09T05:58:00;7.2;;;2.0;;
69404;SDS011;57084;52.046;5.632;2022-09-09T05:59:00;7.2;;;2.0;;
69404;SDS011;57084;52.046;5.632;2022-09-09T06:00:00;6.9;;;2.1;;
69404;SDS011;57084;52.046;5.632;2022-09-09T06:01:01;6.9;;;2.1;;
69404;SDS011;57084;52.046;5.632;2022-09-09T06:02:00;6.9;;;2.1;;
69404;SDS011;57084;52.046;5.632;2022-09-09T06:03:00;6.9;;;2.1;;
69404;SDS011;57084;52.046;5.632;2022-09-09T06:04:00;6.9;;;2.1;;
69404;SDS011;57084;52.046;5.632;2022-09-09T06:05:00;8.6;;;2.1;;
69404;SDS011;57084;52.046;5.632;2022-09-09T06:06:02;8.6;;;2.1;;
69404;SDS011;57084;52.046;5.632;2022-09-09T06:07:00;8.6;;;2.1;;
69404;SDS011;57084;52.046;5.632;2022-09-09T06:08:00;8.6;;;2.1;;
69404;SDS011;57084;52.046;5.632;2022-09-09T06:09:00;8.6;;;2.1;;
69404;SDS011;57084;52.046;5.632;2022-09-09T06:10:00;7.1;;;2.1;;
69404;SDS011;57084;52.046;5.632;2022-09-09T06:11:02;7.1;;;2.1;;
69404;SDS011;57084;52.046;5.632;2022-09-09T06:12:00;7.1;;;2.1;;
69404;SDS011;57084;52.046;5.632;2022-09-09T06:13:00;7.1;;;2.1;;
69404;SDS011;57084;52.046;5.632;2022-09-09T06:14:00;7.1;;;2.1;;